Ludington, MI

2:36 PM EST on March 05, 2015 (GMT -0500)
Frankfort | Change Station
CLOSE
Current Station
Airport
Location: Frankfort,
Elevation: 633 ft
Nearby Weather Stations

Elev 633 ft 44.63 °N, 86.20 °W | Updated 24 minutes ago

Overcast
Overcast
12 °F
Feels Like 1 °F
N
7
Wind Variable Wind from WNW

Today
High -- | Low -- °F
--% Chance of Precip.
Yesterday
High -- | Low -- °F
Precip. -- in
7:16 AM 6:38 PM
Full, 100% visible
Pressure 30.42 in
Visibility 7.0 miles
Clouds Scattered Clouds 2100 ft
Overcast 2900 ft
Windchill 1 °F
Dew Point 3 °F
Humidity 68%
Rainfall 0.00 in
Snow Depth Not available.
UV 1 out of 12
Pollen .40 out of 12
Air Quality Not available.
Flu Activity Not available.
METAR KFKS 051912Z AUTO 30006KT 7SM SCT021 OVC029 M11/M16 A3042 RMK AO2 T11121161

More Conditions Fewer Conditions

Pressure 30.42 in
Visibility 7.0 miles
Clouds Scattered Clouds 2100 ft
Overcast 2900 ft
Windchill 1 °F
Dew Point 3 °F
Humidity 68%
Rainfall 0.00 in
Snow Depth Not available.
UV 1 out of 12
Pollen .40 out of 12
Air Quality Not available.
Flu Activity Not available.
METAR KFKS 051912Z AUTO 30006KT 7SM SCT021 OVC029 M11/M16 A3042 RMK AO2 T11121161

More Conditions Fewer Conditions

10-Day Weather Forecast

Almanac

Astronomy

Mar. 05, 2015 Rise Set
Actual Time
Civil Twilight
Nautical Twilight
Astronomical Twilight
Moon
Length of Visible Light
Length of Day
Tomorrow will be .
, % of the Moon is Illuminated

Today's Extremes

State Highs State Lows

Community

WunderPhotos

Upload Photos

1,802,925 photos uploaded!

WunderBlogs® & News

Nearby

Air Quality

  Air Quality AQ Index Pollutant
Not available.

Snow Depth

Station Depth Elevation

Earthquake Activity

City Distance Mag. Time & Date
Minimum magnitude displayed is 2.5.

Coastal Water Temperatures

Place Temperature

Nearby Weather Stations